sensor_id;sensor_type;location;lat;lon;timestamp;pressure;altitude;pressure_sealevel;temperature;humidity
65394;BME280;52002;49.760;6.512;2023-07-30T00:02:17;99545.71;;;18.36;82.44
65394;BME280;52002;49.760;6.512;2023-07-30T00:04:43;99549.55;;;18.36;82.50
65394;BME280;52002;49.760;6.512;2023-07-30T00:07:09;99550.80;;;18.36;82.52
65394;BME280;52002;49.760;6.512;2023-07-30T00:09:34;99554.04;;;18.34;82.57
65394;BME280;52002;49.760;6.512;2023-07-30T00:11:59;99551.38;;;18.36;82.57
65394;BME280;52002;49.760;6.512;2023-07-30T00:14:27;99550.80;;;18.35;82.44
65394;BME280;52002;49.760;6.512;2023-07-30T00:16:52;99547.30;;;18.35;82.71
65394;BME280;52002;49.760;6.512;2023-07-30T00:19:17;99550.58;;;18.35;82.68
65394;BME280;52002;49.760;6.512;2023-07-30T00:21:43;99549.73;;;18.36;82.80
65394;BME280;52002;49.760;6.512;2023-07-30T00:24:11;99548.27;;;18.38;82.89
65394;BME280;52002;49.760;6.512;2023-07-30T00:26:36;99547.73;;;18.38;82.71
65394;BME280;52002;49.760;6.512;2023-07-30T00:29:03;99542.17;;;18.40;82.74
65394;BME280;52002;49.760;6.512;2023-07-30T00:31:28;99538.20;;;18.43;82.80
65394;BME280;52002;49.760;6.512;2023-07-30T00:33:54;99534.79;;;18.44;82.64
65394;BME280;52002;49.760;6.512;2023-07-30T00:36:19;99533.59;;;18.44;82.65
65394;BME280;52002;49.760;6.512;2023-07-30T00:38:44;99533.72;;;18.43;82.70
65394;BME280;52002;49.760;6.512;2023-07-30T00:41:10;99535.48;;;18.42;82.66
65394;BME280;52002;49.760;6.512;2023-07-30T00:43:35;99530.48;;;18.40;82.70
65394;BME280;52002;49.760;6.512;2023-07-30T00:46:01;99526.86;;;18.38;82.57
65394;BME280;52002;49.760;6.512;2023-07-30T00:48:28;99526.27;;;18.35;82.60
65394;BME280;52002;49.760;6.512;2023-07-30T00:50:53;99527.74;;;18.32;82.60
65394;BME280;52002;49.760;6.512;2023-07-30T00:53:21;99518.06;;;18.28;82.70
65394;BME280;52002;49.760;6.512;2023-07-30T00:55:48;99518.73;;;18.29;82.79
65394;BME280;52002;49.760;6.512;2023-07-30T00:58:13;99521.58;;;18.31;82.98
65394;BME280;52002;49.760;6.512;2023-07-30T01:00:41;99527.95;;;18.33;82.97
65394;BME280;52002;49.760;6.512;2023-07-30T01:03:06;99528.87;;;18.34;82.86
65394;BME280;52002;49.760;6.512;2023-07-30T01:05:33;99528.84;;;18.36;82.81
65394;BME280;52002;49.760;6.512;2023-07-30T01:07:58;99529.77;;;18.38;82.82
65394;BME280;52002;49.760;6.512;2023-07-30T01:10:24;99533.37;;;18.37;82.71
65394;BME280;52002;49.760;6.512;2023-07-30T01:12:51;99533.05;;;18.37;82.70
65394;BME280;52002;49.760;6.512;2023-07-30T01:15:17;99537.86;;;18.36;82.70
65394;BME280;52002;49.760;6.512;2023-07-30T01:17:42;99538.27;;;18.34;82.61
65394;BME280;52002;49.760;6.512;2023-07-30T01:20:08;99532.84;;;18.31;82.64
65394;BME280;52002;49.760;6.512;2023-07-30T01:22:35;99532.27;;;18.32;82.63
65394;BME280;52002;49.760;6.512;2023-07-30T01:25:01;99528.55;;;18.30;82.65
65394;BME280;52002;49.760;6.512;2023-07-30T01:27:32;99532.92;;;18.31;82.89
65394;BME280;52002;49.760;6.512;2023-07-30T01:32:49;99536.54;;;18.30;82.86
65394;BME280;52002;49.760;6.512;2023-07-30T01:35:16;99535.91;;;18.30;82.72
65394;BME280;52002;49.760;6.512;2023-07-30T01:37:44;99540.52;;;18.29;82.72
65394;BME280;52002;49.760;6.512;2023-07-30T01:40:10;99534.05;;;18.23;82.63
65394;BME280;52002;49.760;6.512;2023-07-30T01:42:36;99535.61;;;18.18;82.79
65394;BME280;52002;49.760;6.512;2023-07-30T01:45:02;99537.19;;;18.17;82.90
65394;BME280;52002;49.760;6.512;2023-07-30T01:47:27;99540.52;;;18.15;82.90
65394;BME280;52002;49.760;6.512;2023-07-30T01:49:53;99535.02;;;18.13;82.97
65394;BME280;52002;49.760;6.512;2023-07-30T01:52:18;99535.23;;;18.14;83.13
65394;BME280;52002;49.760;6.512;2023-07-30T01:54:43;99529.42;;;18.15;82.92
65394;BME280;52002;49.760;6.512;2023-07-30T01:57:08;99536.36;;;18.15;83.16
65394;BME280;52002;49.760;6.512;2023-07-30T01:59:34;99535.02;;;18.14;83.07
65394;BME280;52002;49.760;6.512;2023-07-30T02:01:59;99539.01;;;18.13;83.06
65394;BME280;52002;49.760;6.512;2023-07-30T02:04:24;99540.16;;;18.11;82.96
65394;BME280;52002;49.760;6.512;2023-07-30T02:06:50;99537.90;;;18.08;83.05
65394;BME280;52002;49.760;6.512;2023-07-30T02:09:15;99537.34;;;18.04;83.18
65394;BME280;52002;49.760;6.512;2023-07-30T02:11:40;99540.48;;;18.02;83.11
65394;BME280;52002;49.760;6.512;2023-07-30T02:14:06;99538.59;;;17.99;83.06
65394;BME280;52002;49.760;6.512;2023-07-30T02:16:31;99537.95;;;17.95;83.03
65394;BME280;52002;49.760;6.512;2023-07-30T02:18:56;99535.11;;;17.94;83.17
65394;BME280;52002;49.760;6.512;2023-07-30T02:21:22;99532.64;;;17.90;83.20
65394;BME280;52002;49.760;6.512;2023-07-30T02:23:47;99537.89;;;17.87;83.28
65394;BME280;52002;49.760;6.512;2023-07-30T02:26:12;99537.21;;;17.86;83.43
65394;BME280;52002;49.760;6.512;2023-07-30T02:28:38;99538.54;;;17.85;83.62
65394;BME280;52002;49.760;6.512;2023-07-30T02:31:03;99536.06;;;17.87;83.74
65394;BME280;52002;49.760;6.512;2023-07-30T02:33:28;99530.14;;;17.90;83.69
65394;BME280;52002;49.760;6.512;2023-07-30T02:35:56;99530.20;;;17.93;83.60
65394;BME280;52002;49.760;6.512;2023-07-30T02:38:22;99531.04;;;17.96;83.65
65394;BME280;52002;49.760;6.512;2023-07-30T02:40:47;99535.02;;;17.94;83.62
65394;BME280;52002;49.760;6.512;2023-07-30T02:43:12;99536.77;;;17.93;83.56
65394;BME280;52002;49.760;6.512;2023-07-30T02:45:38;99540.84;;;17.93;83.52
65394;BME280;52002;49.760;6.512;2023-07-30T02:48:04;99543.72;;;17.93;83.59
65394;BME280;52002;49.760;6.512;2023-07-30T02:50:29;99542.34;;;17.95;83.75
65394;BME280;52002;49.760;6.512;2023-07-30T02:52:54;99541.43;;;17.96;83.59
65394;BME280;52002;49.760;6.512;2023-07-30T02:55:19;99539.11;;;17.98;83.60
65394;BME280;52002;49.760;6.512;2023-07-30T02:57:45;99539.71;;;17.99;83.55
65394;BME280;52002;49.760;6.512;2023-07-30T03:00:11;99536.73;;;17.98;83.57
65394;BME280;52002;49.760;6.512;2023-07-30T03:02:36;99534.01;;;17.95;83.49
65394;BME280;52002;49.760;6.512;2023-07-30T03:05:01;99543.08;;;17.92;83.27
65394;BME280;52002;49.760;6.512;2023-07-30T03:07:27;99545.73;;;17.88;83.33
65394;BME280;52002;49.760;6.512;2023-07-30T03:09:53;99547.31;;;17.88;83.50
65394;BME280;52002;49.760;6.512;2023-07-30T03:12:18;99548.35;;;17.87;83.50
65394;BME280;52002;49.760;6.512;2023-07-30T03:14:43;99548.30;;;17.85;83.47
65394;BME280;52002;49.760;6.512;2023-07-30T03:17:09;99548.33;;;17.84;83.68
65394;BME280;52002;49.760;6.512;2023-07-30T03:19:34;99552.11;;;17.85;83.68
65394;BME280;52002;49.760;6.512;2023-07-30T03:21:59;99549.00;;;17.85;83.87
65394;BME280;52002;49.760;6.512;2023-07-30T03:24:25;99544.35;;;17.85;83.58
65394;BME280;52002;49.760;6.512;2023-07-30T03:26:50;99547.38;;;17.83;83.38
65394;BME280;52002;49.760;6.512;2023-07-30T03:29:15;99546.92;;;17.83;83.73
65394;BME280;52002;49.760;6.512;2023-07-30T03:31:41;99543.27;;;17.85;83.79
65394;BME280;52002;49.760;6.512;2023-07-30T03:34:06;99541.97;;;17.84;83.77
65394;BME280;52002;49.760;6.512;2023-07-30T03:36:32;99546.00;;;17.79;83.56
65394;BME280;52002;49.760;6.512;2023-07-30T03:38:57;99545.23;;;17.72;83.63
65394;BME280;52002;49.760;6.512;2023-07-30T03:41:22;99547.69;;;17.71;84.00
65394;BME280;52002;49.760;6.512;2023-07-30T03:43:48;99545.48;;;17.74;84.06
65394;BME280;52002;49.760;6.512;2023-07-30T03:46:13;99544.95;;;17.77;84.09
65394;BME280;52002;49.760;6.512;2023-07-30T03:48:39;99546.52;;;17.82;84.05
65394;BME280;52002;49.760;6.512;2023-07-30T03:51:04;99550.38;;;17.85;84.17
65394;BME280;52002;49.760;6.512;2023-07-30T03:53:29;99552.12;;;17.90;84.06
65394;BME280;52002;49.760;6.512;2023-07-30T03:55:54;99552.88;;;17.91;84.02
65394;BME280;52002;49.760;6.512;2023-07-30T03:58:20;99554.93;;;17.92;83.89
65394;BME280;52002;49.760;6.512;2023-07-30T04:00:45;99558.20;;;17.90;83.76
65394;BME280;52002;49.760;6.512;2023-07-30T04:03:10;99551.55;;;17.92;83.76
65394;BME280;52002;49.760;6.512;2023-07-30T04:05:36;99553.68;;;17.93;83.65
65394;BME280;52002;49.760;6.512;2023-07-30T04:08:01;99555.70;;;17.96;83.70
65394;BME280;52002;49.760;6.512;2023-07-30T04:10:26;99544.79;;;18.00;83.58
65394;BME280;52002;49.760;6.512;2023-07-30T04:12:52;99539.23;;;18.01;83.52
65394;BME280;52002;49.760;6.512;2023-07-30T04:15:17;99540.98;;;18.01;83.38
65394;BME280;52002;49.760;6.512;2023-07-30T04:17:43;99540.23;;;18.00;83.40
65394;BME280;52002;49.760;6.512;2023-07-30T04:20:09;99536.02;;;18.01;83.47
65394;BME280;52002;49.760;6.512;2023-07-30T04:22:35;99541.55;;;18.00;83.23
65394;BME280;52002;49.760;6.512;2023-07-30T04:25:00;99541.73;;;17.97;83.17
65394;BME280;52002;49.760;6.512;2023-07-30T04:27:26;99544.45;;;17.98;83.39
65394;BME280;52002;49.760;6.512;2023-07-30T04:29:51;99552.79;;;17.98;83.28
65394;BME280;52002;49.760;6.512;2023-07-30T04:32:16;99562.75;;;17.96;83.37
65394;BME280;52002;49.760;6.512;2023-07-30T04:34:42;99562.29;;;17.96;83.48
65394;BME280;52002;49.760;6.512;2023-07-30T04:37:07;99559.39;;;17.96;83.55
65394;BME280;52002;49.760;6.512;2023-07-30T04:39:33;99547.59;;;17.96;83.72
65394;BME280;52002;49.760;6.512;2023-07-30T04:41:58;99539.38;;;17.99;83.70
65394;BME280;52002;49.760;6.512;2023-07-30T04:44:23;99530.92;;;17.98;83.73
65394;BME280;52002;49.760;6.512;2023-07-30T04:46:49;99520.62;;;18.01;84.43
65394;BME280;52002;49.760;6.512;2023-07-30T04:49:14;99522.33;;;18.03;84.23
65394;BME280;52002;49.760;6.512;2023-07-30T04:51:40;99529.23;;;18.03;84.04
65394;BME280;52002;49.760;6.512;2023-07-30T04:54:05;99523.45;;;18.11;84.26
65394;BME280;52002;49.760;6.512;2023-07-30T04:56:30;99528.55;;;18.20;84.03
65394;BME280;52002;49.760;6.512;2023-07-30T04:58:56;99534.43;;;18.30;83.89
65394;BME280;52002;49.760;6.512;2023-07-30T05:01:21;99539.54;;;18.37;83.56
65394;BME280;52002;49.760;6.512;2023-07-30T05:03:46;99549.83;;;18.40;83.26
65394;BME280;52002;49.760;6.512;2023-07-30T05:06:12;99552.67;;;18.38;82.89
65394;BME280;52002;49.760;6.512;2023-07-30T05:08:37;99554.57;;;18.35;82.88
65394;BME280;52002;49.760;6.512;2023-07-30T05:11:02;99552.58;;;18.36;82.83
65394;BME280;52002;49.760;6.512;2023-07-30T05:13:27;99553.04;;;18.35;82.56
65394;BME280;52002;49.760;6.512;2023-07-30T05:15:53;99550.95;;;18.33;82.46
65394;BME280;52002;49.760;6.512;2023-07-30T05:18:18;99552.30;;;18.31;82.33
65394;BME280;52002;49.760;6.512;2023-07-30T05:20:46;99549.11;;;18.32;82.57
65394;BME280;52002;49.760;6.512;2023-07-30T05:23:11;99551.04;;;18.35;82.48
65394;BME280;52002;49.760;6.512;2023-07-30T05:25:36;99547.64;;;18.38;82.44
65394;BME280;52002;49.760;6.512;2023-07-30T05:28:02;99551.55;;;18.42;82.51
65394;BME280;52002;49.760;6.512;2023-07-30T05:30:27;99556.20;;;18.45;82.32
65394;BME280;52002;49.760;6.512;2023-07-30T05:32:53;99555.67;;;18.47;82.24
65394;BME280;52002;49.760;6.512;2023-07-30T05:35:18;99552.17;;;18.51;82.19
65394;BME280;52002;49.760;6.512;2023-07-30T05:37:44;99557.64;;;18.54;81.98
65394;BME280;52002;49.760;6.512;2023-07-30T05:40:09;99553.63;;;18.59;81.71
65394;BME280;52002;49.760;6.512;2023-07-30T05:42:35;99557.02;;;18.63;81.68
65394;BME280;52002;49.760;6.512;2023-07-30T05:45:00;99557.58;;;18.68;81.73
65394;BME280;52002;49.760;6.512;2023-07-30T05:47:25;99563.45;;;18.70;81.45
65394;BME280;52002;49.760;6.512;2023-07-30T05:49:51;99560.62;;;18.71;81.43
65394;BME280;52002;49.760;6.512;2023-07-30T05:52:16;99564.00;;;18.71;81.34
65394;BME280;52002;49.760;6.512;2023-07-30T05:54:41;99563.23;;;18.74;81.28
65394;BME280;52002;49.760;6.512;2023-07-30T05:57:06;99566.45;;;18.80;81.31
65394;BME280;52002;49.760;6.512;2023-07-30T05:59:32;99570.79;;;18.85;81.14
65394;BME280;52002;49.760;6.512;2023-07-30T06:02:02;99586.04;;;18.88;81.10
65394;BME280;52002;49.760;6.512;2023-07-30T06:04:28;99607.05;;;18.81;80.98
65394;BME280;52002;49.760;6.512;2023-07-30T06:06:53;99621.63;;;18.74;80.41
65394;BME280;52002;49.760;6.512;2023-07-30T06:09:18;99629.08;;;18.68;79.15
65394;BME280;52002;49.760;6.512;2023-07-30T06:11:44;99636.77;;;18.60;77.80
65394;BME280;52002;49.760;6.512;2023-07-30T06:14:09;99644.50;;;18.47;77.26
65394;BME280;52002;49.760;6.512;2023-07-30T06:16:34;99659.15;;;18.32;76.94
65394;BME280;52002;49.760;6.512;2023-07-30T06:19:00;99666.96;;;18.25;77.47
65394;BME280;52002;49.760;6.512;2023-07-30T06:21:25;99668.63;;;18.16;77.20
65394;BME280;52002;49.760;6.512;2023-07-30T06:23:50;99673.58;;;18.14;76.99
65394;BME280;52002;49.760;6.512;2023-07-30T06:26:16;99674.09;;;18.10;76.51
65394;BME280;52002;49.760;6.512;2023-07-30T06:28:41;99682.92;;;18.05;76.64
65394;BME280;52002;49.760;6.512;2023-07-30T06:31:07;99687.87;;;18.03;76.23
65394;BME280;52002;49.760;6.512;2023-07-30T06:33:32;99695.32;;;18.00;76.20
65394;BME280;52002;49.760;6.512;2023-07-30T06:35:57;99699.92;;;17.92;75.86
65394;BME280;52002;49.760;6.512;2023-07-30T06:38:22;99698.02;;;17.85;75.58
65394;BME280;52002;49.760;6.512;2023-07-30T06:40:48;99695.20;;;17.80;75.85
65394;BME280;52002;49.760;6.512;2023-07-30T06:43:13;99702.13;;;17.78;76.21
65394;BME280;52002;49.760;6.512;2023-07-30T06:45:39;99704.08;;;17.78;76.33
65394;BME280;52002;49.760;6.512;2023-07-30T06:48:04;99706.48;;;17.82;76.64
65394;BME280;52002;49.760;6.512;2023-07-30T06:50:29;99714.47;;;17.89;76.41
65394;BME280;52002;49.760;6.512;2023-07-30T06:52:55;99719.33;;;17.93;76.55
65394;BME280;52002;49.760;6.512;2023-07-30T06:55:20;99715.11;;;17.98;76.80
65394;BME280;52002;49.760;6.512;2023-07-30T06:57:45;99715.48;;;18.04;76.81
65394;BME280;52002;49.760;6.512;2023-07-30T07:00:11;99709.71;;;18.10;76.34
65394;BME280;52002;49.760;6.512;2023-07-30T07:02:37;99721.30;;;18.27;75.78
65394;BME280;52002;49.760;6.512;2023-07-30T07:05:02;99725.98;;;18.55;75.60
65394;BME280;52002;49.760;6.512;2023-07-30T07:07:28;99721.02;;;18.95;75.44
65394;BME280;52002;49.760;6.512;2023-07-30T07:09:53;99724.02;;;20.34;73.70
65394;BME280;52002;49.760;6.512;2023-07-30T07:12:18;99734.13;;;23.15;69.13
65394;BME280;52002;49.760;6.512;2023-07-30T07:14:44;99745.76;;;24.20;67.13
65394;BME280;52002;49.760;6.512;2023-07-30T07:17:09;99743.91;;;24.39;65.24
65394;BME280;52002;49.760;6.512;2023-07-30T07:19:35;99744.70;;;23.84;64.25
65394;BME280;52002;49.760;6.512;2023-07-30T07:22:05;99761.34;;;23.40;64.02
65394;BME280;52002;49.760;6.512;2023-07-30T07:24:31;99756.37;;;22.98;64.38
65394;BME280;52002;49.760;6.512;2023-07-30T07:26:57;99753.90;;;22.79;64.38
65394;BME280;52002;49.760;6.512;2023-07-30T07:29:22;99771.38;;;22.87;63.69
65394;BME280;52002;49.760;6.512;2023-07-30T07:31:48;99778.23;;;22.62;63.87
65394;BME280;52002;49.760;6.512;2023-07-30T07:34:13;99772.03;;;22.20;63.74
65394;BME280;52002;49.760;6.512;2023-07-30T07:36:39;99784.83;;;21.91;63.82
65394;BME280;52002;49.760;6.512;2023-07-30T07:39:04;99785.06;;;21.78;64.71
65394;BME280;52002;49.760;6.512;2023-07-30T07:41:29;99791.89;;;21.72;64.26
65394;BME280;52002;49.760;6.512;2023-07-30T07:43:55;99797.98;;;21.64;63.95
65394;BME280;52002;49.760;6.512;2023-07-30T07:46:21;99793.98;;;21.58;64.26
65394;BME280;52002;49.760;6.512;2023-07-30T07:48:46;99792.41;;;21.58;64.51
65394;BME280;52002;49.760;6.512;2023-07-30T07:51:12;99796.14;;;21.62;64.24
65394;BME280;52002;49.760;6.512;2023-07-30T07:53:38;99801.60;;;21.81;63.93
65394;BME280;52002;49.760;6.512;2023-07-30T07:56:04;99800.26;;;21.89;63.51
65394;BME280;52002;49.760;6.512;2023-07-30T07:58:30;99800.31;;;21.97;63.14
65394;BME280;52002;49.760;6.512;2023-07-30T08:00:56;99792.42;;;22.83;62.22
65394;BME280;52002;49.760;6.512;2023-07-30T08:03:22;99798.08;;;23.37;61.26
65394;BME280;52002;49.760;6.512;2023-07-30T08:05:48;99801.61;;;23.28;60.87
65394;BME280;52002;49.760;6.512;2023-07-30T08:08:13;99804.57;;;23.01;60.39
65394;BME280;52002;49.760;6.512;2023-07-30T08:10:39;99808.52;;;22.70;60.21
65394;BME280;52002;49.760;6.512;2023-07-30T08:13:05;99813.66;;;22.62;60.78
65394;BME280;52002;49.760;6.512;2023-07-30T08:15:30;99816.44;;;22.69;60.54
65394;BME280;52002;49.760;6.512;2023-07-30T08:17:57;99814.80;;;22.96;59.92
65394;BME280;52002;49.760;6.512;2023-07-30T08:20:23;99811.08;;;23.18;59.76
65394;BME280;52002;49.760;6.512;2023-07-30T08:22:48;99811.90;;;23.76;59.04
65394;BME280;52002;49.760;6.512;2023-07-30T08:25:13;99813.98;;;23.77;57.96
65394;BME280;52002;49.760;6.512;2023-07-30T08:27:38;99816.13;;;23.58;57.86
65394;BME280;52002;49.760;6.512;2023-07-30T08:30:05;99821.47;;;23.53;57.41
65394;BME280;52002;49.760;6.512;2023-07-30T08:32:32;99829.85;;;23.49;57.16
65394;BME280;52002;49.760;6.512;2023-07-30T08:34:58;99828.48;;;23.13;57.91
65394;BME280;52002;49.760;6.512;2023-07-30T08:37:23;99834.60;;;22.82;58.18
65394;BME280;52002;49.760;6.512;2023-07-30T08:39:48;99843.90;;;22.51;58.72
65394;BME280;52002;49.760;6.512;2023-07-30T08:42:14;99840.52;;;22.57;58.95
65394;BME280;52002;49.760;6.512;2023-07-30T08:44:39;99839.64;;;23.11;58.68
65394;BME280;52002;49.760;6.512;2023-07-30T08:47:04;99844.01;;;23.09;58.43
65394;BME280;52002;49.760;6.512;2023-07-30T08:49:30;99844.75;;;22.84;58.45
65394;BME280;52002;49.760;6.512;2023-07-30T08:51:58;99845.30;;;22.47;58.69
65394;BME280;52002;49.760;6.512;2023-07-30T08:54:27;99847.83;;;22.03;58.64
65394;BME280;52002;49.760;6.512;2023-07-30T08:56:54;99855.77;;;21.67;59.43
65394;BME280;52002;49.760;6.512;2023-07-30T08:59:21;99852.16;;;21.39;59.55
65394;BME280;52002;49.760;6.512;2023-07-30T09:01:51;99856.27;;;21.11;60.38
65394;BME280;52002;49.760;6.512;2023-07-30T09:04:17;99856.02;;;20.86;60.79
65394;BME280;52002;49.760;6.512;2023-07-30T09:06:43;99860.34;;;20.61;61.66
65394;BME280;52002;49.760;6.512;2023-07-30T09:09:11;99865.60;;;20.42;61.52
65394;BME280;52002;49.760;6.512;2023-07-30T09:11:38;99866.66;;;20.30;62.18
65394;BME280;52002;49.760;6.512;2023-07-30T09:14:05;99867.02;;;20.24;62.13
65394;BME280;52002;49.760;6.512;2023-07-30T09:16:30;99866.98;;;20.28;62.50
65394;BME280;52002;49.760;6.512;2023-07-30T09:18:56;99872.14;;;20.39;62.68
65394;BME280;52002;49.760;6.512;2023-07-30T09:21:31;99870.88;;;20.53;62.34
65394;BME280;52002;49.760;6.512;2023-07-30T09:23:57;99865.54;;;20.73;62.55
65394;BME280;52002;49.760;6.512;2023-07-30T09:26:23;99869.20;;;20.93;61.82
65394;BME280;52002;49.760;6.512;2023-07-30T09:28:49;99865.65;;;21.07;61.30
65394;BME280;52002;49.760;6.512;2023-07-30T09:31:14;99872.41;;;21.20;61.35
65394;BME280;52002;49.760;6.512;2023-07-30T09:33:42;99876.54;;;21.26;61.17
65394;BME280;52002;49.760;6.512;2023-07-30T09:36:08;99879.30;;;21.33;61.48
65394;BME280;52002;49.760;6.512;2023-07-30T09:38:39;99877.49;;;21.40;60.78
65394;BME280;52002;49.760;6.512;2023-07-30T09:41:04;99877.36;;;21.38;60.26
65394;BME280;52002;49.760;6.512;2023-07-30T09:43:33;99876.78;;;21.41;60.05
65394;BME280;52002;49.760;6.512;2023-07-30T09:46:03;99873.81;;;21.42;59.78
65394;BME280;52002;49.760;6.512;2023-07-30T09:48:30;99873.10;;;21.38;60.00
65394;BME280;52002;49.760;6.512;2023-07-30T09:51:05;99869.94;;;21.34;60.11
65394;BME280;52002;49.760;6.512;2023-07-30T09:53:33;99873.58;;;21.28;59.71
65394;BME280;52002;49.760;6.512;2023-07-30T09:56:02;99872.75;;;21.19;59.47
65394;BME280;52002;49.760;6.512;2023-07-30T09:58:29;99872.21;;;21.11;59.59
65394;BME280;52002;49.760;6.512;2023-07-30T10:00:57;99872.54;;;21.23;59.50
65394;BME280;52002;49.760;6.512;2023-07-30T10:03:23;99873.18;;;21.69;58.92
65394;BME280;52002;49.760;6.512;2023-07-30T10:05:50;99873.16;;;22.24;57.94
65394;BME280;52002;49.760;6.512;2023-07-30T10:08:21;99869.52;;;22.58;57.61
65394;BME280;52002;49.760;6.512;2023-07-30T10:10:48;99873.02;;;22.71;56.73
65394;BME280;52002;49.760;6.512;2023-07-30T10:13:15;99871.92;;;22.90;56.37
65394;BME280;52002;49.760;6.512;2023-07-30T10:15:44;99873.88;;;23.06;56.50
65394;BME280;52002;49.760;6.512;2023-07-30T10:18:11;99883.48;;;23.10;55.89
65394;BME280;52002;49.760;6.512;2023-07-30T10:20:36;99879.17;;;23.22;55.48
65394;BME280;52002;49.760;6.512;2023-07-30T10:23:04;99880.02;;;23.24;55.34
65394;BME280;52002;49.760;6.512;2023-07-30T10:25:48;99880.92;;;23.25;55.17
65394;BME280;52002;49.760;6.512;2023-07-30T10:28:27;99885.28;;;23.10;54.50
65394;BME280;52002;49.760;6.512;2023-07-30T10:30:57;99882.02;;;23.04;54.11
65394;BME280;52002;49.760;6.512;2023-07-30T10:33:23;99889.52;;;23.14;54.47
65394;BME280;52002;49.760;6.512;2023-07-30T10:35:54;99882.23;;;23.23;53.72
65394;BME280;52002;49.760;6.512;2023-07-30T10:38:28;99884.86;;;23.30;53.87
65394;BME280;52002;49.760;6.512;2023-07-30T10:41:06;99886.02;;;23.37;53.19
65394;BME280;52002;49.760;6.512;2023-07-30T10:43:50;99894.38;;;23.41;52.98
65394;BME280;52002;49.760;6.512;2023-07-30T10:46:17;99899.00;;;23.45;52.59
65394;BME280;52002;49.760;6.512;2023-07-30T10:48:45;99894.41;;;23.34;51.88
65394;BME280;52002;49.760;6.512;2023-07-30T10:51:12;99893.57;;;23.14;51.81
65394;BME280;52002;49.760;6.512;2023-07-30T10:53:38;99897.52;;;22.90;51.79
65394;BME280;52002;49.760;6.512;2023-07-30T10:56:09;99896.62;;;22.68;52.09
65394;BME280;52002;49.760;6.512;2023-07-30T10:58:36;99895.21;;;22.56;52.68
65394;BME280;52002;49.760;6.512;2023-07-30T11:01:03;99897.71;;;22.67;53.54
65394;BME280;52002;49.760;6.512;2023-07-30T11:03:29;99899.08;;;22.86;52.87
65394;BME280;52002;49.760;6.512;2023-07-30T11:05:55;99893.47;;;23.08;52.10
65394;BME280;52002;49.760;6.512;2023-07-30T11:08:37;99895.41;;;23.35;51.80
65394;BME280;52002;49.760;6.512;2023-07-30T11:11:03;99887.16;;;23.33;51.72
65394;BME280;52002;49.760;6.512;2023-07-30T11:13:29;99887.98;;;23.23;51.86
65394;BME280;52002;49.760;6.512;2023-07-30T11:15:54;99897.73;;;23.28;51.70
65394;BME280;52002;49.760;6.512;2023-07-30T11:18:20;99899.00;;;23.42;51.34
65394;BME280;52002;49.760;6.512;2023-07-30T11:20:45;99906.84;;;23.66;50.96
65394;BME280;52002;49.760;6.512;2023-07-30T11:23:21;99903.98;;;23.78;49.83
65394;BME280;52002;49.760;6.512;2023-07-30T11:25:50;99902.95;;;23.84;50.22
65394;BME280;52002;49.760;6.512;2023-07-30T11:28:38;99906.23;;;23.90;50.33
65394;BME280;52002;49.760;6.512;2023-07-30T11:31:30;99910.13;;;23.83;49.73
65394;BME280;52002;49.760;6.512;2023-07-30T11:33:55;99915.92;;;23.59;50.24
65394;BME280;52002;49.760;6.512;2023-07-30T11:36:25;99919.45;;;23.36;50.07
65394;BME280;52002;49.760;6.512;2023-07-30T11:38:51;99921.32;;;23.21;50.42
65394;BME280;52002;49.760;6.512;2023-07-30T11:41:19;99928.33;;;23.13;50.52
65394;BME280;52002;49.760;6.512;2023-07-30T11:43:46;99929.86;;;23.13;50.67
65394;BME280;52002;49.760;6.512;2023-07-30T11:46:14;99926.26;;;23.24;50.95
65394;BME280;52002;49.760;6.512;2023-07-30T11:48:40;99925.13;;;23.33;50.46
65394;BME280;52002;49.760;6.512;2023-07-30T11:51:06;99926.09;;;23.39;50.17
65394;BME280;52002;49.760;6.512;2023-07-30T11:53:53;99927.33;;;23.49;49.92
65394;BME280;52002;49.760;6.512;2023-07-30T11:56:29;99927.41;;;23.76;50.14
65394;BME280;52002;49.760;6.512;2023-07-30T11:59:04;99928.89;;;24.00;50.31
65394;BME280;52002;49.760;6.512;2023-07-30T12:01:31;99927.02;;;24.14;49.11
65394;BME280;52002;49.760;6.512;2023-07-30T12:04:00;99930.02;;;24.23;49.02
65394;BME280;52002;49.760;6.512;2023-07-30T12:06:42;99930.92;;;24.27;49.14
65394;BME280;52002;49.760;6.512;2023-07-30T12:09:17;99932.61;;;24.29;49.09
65394;BME280;52002;49.760;6.512;2023-07-30T12:12:04;99941.34;;;24.23;48.58
65394;BME280;52002;49.760;6.512;2023-07-30T12:17:13;99939.46;;;23.98;47.86
65394;BME280;52002;49.760;6.512;2023-07-30T12:19:39;99932.11;;;24.05;48.61
65394;BME280;52002;49.760;6.512;2023-07-30T12:22:05;99937.44;;;24.26;48.63
65394;BME280;52002;49.760;6.512;2023-07-30T12:24:31;99945.40;;;24.37;47.87
65394;BME280;52002;49.760;6.512;2023-07-30T12:26:57;99945.74;;;24.39;47.58
65394;BME280;52002;49.760;6.512;2023-07-30T12:29:22;99947.39;;;24.39;47.44
65394;BME280;52002;49.760;6.512;2023-07-30T12:31:47;99948.14;;;24.36;47.29
65394;BME280;52002;49.760;6.512;2023-07-30T12:34:13;99951.18;;;24.38;47.09
65394;BME280;52002;49.760;6.512;2023-07-30T12:36:38;99951.58;;;24.44;47.31
65394;BME280;52002;49.760;6.512;2023-07-30T12:39:04;99950.23;;;24.34;46.76
65394;BME280;52002;49.760;6.512;2023-07-30T12:41:29;99946.80;;;24.23;46.73
65394;BME280;52002;49.760;6.512;2023-07-30T12:43:55;99944.83;;;24.19;46.91
65394;BME280;52002;49.760;6.512;2023-07-30T12:46:24;99944.80;;;24.18;47.04
65394;BME280;52002;49.760;6.512;2023-07-30T12:48:52;99944.98;;;24.20;47.07
65394;BME280;52002;49.760;6.512;2023-07-30T12:51:18;99952.27;;;24.28;48.07
65394;BME280;52002;49.760;6.512;2023-07-30T12:53:43;99950.48;;;24.19;47.31
65394;BME280;52002;49.760;6.512;2023-07-30T12:56:08;99940.08;;;24.04;47.44
65394;BME280;52002;49.760;6.512;2023-07-30T12:58:34;99941.88;;;23.88;46.85
65394;BME280;52002;49.760;6.512;2023-07-30T13:00:59;99942.52;;;23.91;46.84
65394;BME280;52002;49.760;6.512;2023-07-30T13:03:25;99940.23;;;24.03;46.36